Time;durP1;ratioP1;P1;durP2;ratioP2;P2;SDS_P1;SDS_P2;PMS_P1;PMS_P2;Temp;Humidity;BMP_temperature;BMP_pressure;BME280_temperature;BME280_humidity;BME280_pressure;Samples;Min_cycle;Max_cycle;Signal;HPM_P1;HPM_P2
2020/12/15 00:00:31;;;;;;;6.72;2.60;;;9.80;99.90;;;;;;5072062;28;20020;-75
2020/12/15 00:02:56;;;;;;;4.45;2.13;;;9.80;99.90;;;;;;5083803;28;20025;-75
2020/12/15 00:05:22;;;;;;;5.13;2.35;;;9.80;99.90;;;;;;5087152;28;20500;-76
2020/12/15 00:07:47;;;;;;;7.90;2.17;;;9.80;99.90;;;;;;5073193;28;20028;-75
2020/12/15 00:10:13;;;;;;;5.30;2.45;;;9.80;99.90;;;;;;5073038;28;20029;-76
2020/12/15 00:12:41;;;;;;;8.40;2.72;;;9.80;99.90;;;;;;5093352;28;20028;-76
2020/12/15 00:15:07;;;;;;;5.88;2.88;;;9.80;99.90;;;;;;5093454;28;20028;-76
2020/12/15 00:17:32;;;;;;;6.28;3.15;;;9.80;99.90;;;;;;5093375;28;20027;-75
2020/12/15 00:19:58;;;;;;;7.78;2.67;;;9.80;99.90;;;;;;5093630;28;20085;-75
2020/12/15 00:22:24;;;;;;;7.07;3.47;;;9.80;99.90;;;;;;5095197;28;20047;-75
2020/12/15 00:24:49;;;;;;;5.90;2.67;;;9.80;99.90;;;;;;5098096;28;20023;-79
2020/12/15 00:27:15;;;;;;;4.03;2.50;;;9.80;99.90;;;;;;5096472;28;20428;-78
2020/12/15 00:29:40;;;;;;;6.15;3.00;;;9.80;99.90;;;;;;5096546;28;20042;-79
2020/12/15 00:32:07;;;;;;;4.85;2.63;;;9.70;99.90;;;;;;5097949;28;20016;-79
2020/12/15 00:34:33;;;;;;;7.22;2.78;;;9.70;99.90;;;;;;5097873;28;20028;-79
2020/12/15 00:36:58;;;;;;;4.65;3.35;;;9.80;99.90;;;;;;5097983;28;20046;-79
2020/12/15 00:39:24;;;;;;;5.90;2.58;;;9.80;99.90;;;;;;5079902;28;20371;-79
2020/12/15 00:41:50;;;;;;;7.80;3.17;;;9.80;99.90;;;;;;5076263;28;20028;-80
2020/12/15 00:44:16;;;;;;;5.35;2.72;;;9.70;99.90;;;;;;5079407;28;20029;-81
2020/12/15 00:46:42;;;;;;;4.30;2.95;;;9.70;99.90;;;;;;5082930;28;20024;-82
2020/12/15 00:49:08;;;;;;;5.88;2.58;;;9.70;99.90;;;;;;5095609;28;20035;-80
2020/12/15 00:51:33;;;;;;;5.35;2.90;;;9.70;99.90;;;;;;5100108;28;20101;-80
2020/12/15 00:53:59;;;;;;;5.80;3.00;;;9.70;99.90;;;;;;5099915;28;20423;-79
2020/12/15 00:56:24;;;;;;;5.60;2.92;;;9.70;99.90;;;;;;5098145;28;20025;-80
2020/12/15 00:58:50;;;;;;;5.20;2.55;;;9.60;99.90;;;;;;5085554;28;20051;-79
2020/12/15 01:01:16;;;;;;;5.00;2.75;;;9.60;99.90;;;;;;5077903;28;20028;-79
2020/12/15 01:03:44;;;;;;;6.57;3.00;;;9.60;99.90;;;;;;5079039;28;20020;-80
2020/12/15 01:06:10;;;;;;;8.15;3.40;;;9.60;99.90;;;;;;5077778;28;20027;-80
2020/12/15 01:08:35;;;;;;;5.80;3.50;;;9.50;99.90;;;;;;5088095;28;20107;-79
2020/12/15 01:11:01;;;;;;;7.32;2.70;;;9.50;99.90;;;;;;5097947;28;20031;-79
2020/12/15 01:13:27;;;;;;;10.35;3.33;;;9.50;99.90;;;;;;5097646;28;20016;-76
2020/12/15 01:15:52;;;;;;;9.38;3.42;;;9.50;99.90;;;;;;5097041;28;20047;-77
2020/12/15 01:18:18;;;;;;;3.97;2.75;;;9.60;99.90;;;;;;5096878;28;20028;-76
2020/12/15 01:20:43;;;;;;;7.78;3.13;;;9.50;99.90;;;;;;5088382;28;20032;-76
2020/12/15 01:23:09;;;;;;;5.40;3.78;;;9.60;99.90;;;;;;5098282;28;20468;-76
2020/12/15 01:25:35;;;;;;;6.82;3.08;;;9.50;99.90;;;;;;5099446;28;20358;-80
2020/12/15 01:28:00;;;;;;;5.47;2.88;;;9.50;99.90;;;;;;5092024;28;20031;-80
2020/12/15 01:30:26;;;;;;;8.68;3.20;;;9.60;99.90;;;;;;5080900;28;20478;-80
2020/12/15 01:32:51;;;;;;;7.15;3.55;;;9.50;99.90;;;;;;5101326;28;20058;-80
2020/12/15 01:35:18;;;;;;;7.72;2.90;;;9.50;99.90;;;;;;5102994;28;20020;-79
2020/12/15 01:37:45;;;;;;;4.60;2.92;;;9.50;99.90;;;;;;5096233;28;20013;-77
2020/12/15 01:40:11;;;;;;;7.93;3.53;;;9.50;99.90;;;;;;5076174;28;20025;-78
2020/12/15 01:42:37;;;;;;;6.07;2.70;;;9.50;99.90;;;;;;5075950;28;20078;-78
2020/12/15 01:45:05;;;;;;;5.03;3.20;;;9.50;99.90;;;;;;5076081;28;20025;-77
2020/12/15 01:47:31;;;;;;;6.07;3.10;;;9.50;99.90;;;;;;5091595;28;20030;-77
2020/12/15 01:49:57;;;;;;;5.95;2.80;;;9.50;99.90;;;;;;5095823;28;20035;-77
2020/12/15 01:52:22;;;;;;;6.30;3.38;;;9.50;99.90;;;;;;5099894;28;20472;-80
2020/12/15 01:54:50;;;;;;;4.22;2.83;;;9.50;99.90;;;;;;5102592;28;20025;-80
2020/12/15 01:57:16;;;;;;;4.90;2.63;;;9.50;99.90;;;;;;5081498;28;20028;-78
2020/12/15 01:59:41;;;;;;;7.22;3.22;;;9.50;99.90;;;;;;5076957;28;20035;-79
2020/12/15 02:02:07;;;;;;;5.63;2.97;;;9.50;99.90;;;;;;5077168;28;20103;-79
2020/12/15 02:04:32;;;;;;;6.35;3.35;;;9.40;99.90;;;;;;5075870;28;20381;-78
2020/12/15 02:06:58;;;;;;;5.40;2.78;;;9.40;99.90;;;;;;5084747;28;20040;-79
2020/12/15 02:09:24;;;;;;;5.05;2.90;;;9.40;99.90;;;;;;5096247;28;20016;-79
2020/12/15 02:11:49;;;;;;;5.63;2.67;;;9.50;99.90;;;;;;5097179;28;20495;-79
2020/12/15 02:14:15;;;;;;;5.63;2.28;;;9.50;99.90;;;;;;5096898;28;20548;-80
2020/12/15 02:16:42;;;;;;;6.53;3.28;;;9.50;99.90;;;;;;5078345;28;20020;-80
2020/12/15 02:19:15;;;;;;;6.13;3.63;;;9.50;99.90;;;;;;5079326;28;20028;-80
2020/12/15 02:21:51;;;;;;;6.15;3.10;;;9.50;99.90;;;;;;5080158;28;20031;-80
2020/12/15 02:24:16;;;;;;;5.60;2.72;;;9.50;99.90;;;;;;5081764;28;20111;-80
2020/12/15 02:26:42;;;;;;;4.78;3.28;;;9.50;99.90;;;;;;5100915;28;20195;-81
2020/12/15 02:29:08;;;;;;;5.68;3.22;;;9.50;99.90;;;;;;5099185;28;20135;-82
2020/12/15 02:31:34;;;;;;;11.80;4.28;;;9.50;99.90;;;;;;5099407;28;20020;-83
2020/12/15 02:33:59;;;;;;;5.50;3.00;;;9.50;99.90;;;;;;5097178;28;20493;-78
2020/12/15 02:36:28;;;;;;;6.13;2.83;;;9.50;99.90;;;;;;5075719;28;20021;-78
2020/12/15 02:38:53;;;;;;;10.57;3.35;;;9.50;99.90;;;;;;5074554;28;20481;-79
2020/12/15 02:41:19;;;;;;;4.70;3.20;;;9.50;99.90;;;;;;5079391;28;20115;-80
2020/12/15 02:43:44;;;;;;;6.57;3.55;;;9.50;99.90;;;;;;5080618;28;20016;-80
2020/12/15 02:46:10;;;;;;;7.97;4.22;;;9.50;99.90;;;;;;5097148;28;20028;-80
2020/12/15 02:48:35;;;;;;;5.95;3.38;;;9.50;99.90;;;;;;5098091;28;20055;-81
2020/12/15 02:51:01;;;;;;;9.75;3.25;;;9.50;99.90;;;;;;5099242;28;20028;-81
2020/12/15 02:53:26;;;;;;;9.40;3.65;;;9.50;99.90;;;;;;5090689;28;20404;-78
2020/12/15 02:55:52;;;;;;;7.43;3.50;;;9.40;99.90;;;;;;5073765;28;20489;-78
2020/12/15 02:58:17;;;;;;;4.97;3.22;;;9.40;99.90;;;;;;5073158;28;20019;-77
2020/12/15 03:00:43;;;;;;;5.82;3.30;;;9.40;99.90;;;;;;5073222;28;20016;-77
2020/12/15 03:03:08;;;;;;;6.75;4.50;;;9.40;99.90;;;;;;5074985;28;20071;-77
2020/12/15 03:05:34;;;;;;;8.88;4.35;;;9.40;99.90;;;;;;5076003;28;20021;-81
2020/12/15 03:08:01;;;;;;;11.23;3.42;;;9.40;99.90;;;;;;5076898;28;20035;-80
2020/12/15 03:10:27;;;;;;;6.75;3.92;;;9.40;99.90;;;;;;5075718;28;20020;-81
2020/12/15 03:12:52;;;;;;;5.47;3.42;;;9.40;99.90;;;;;;5077434;28;20397;-81
2020/12/15 03:15:18;;;;;;;9.02;4.13;;;9.40;99.90;;;;;;5095552;28;20096;-81
2020/12/15 03:17:44;;;;;;;6.50;4.03;;;9.60;99.90;;;;;;5095713;28;20089;-79
2020/12/15 03:20:09;;;;;;;6.68;3.65;;;9.40;99.90;;;;;;5095170;28;20024;-79
2020/12/15 03:22:35;;;;;;;7.95;3.65;;;9.40;99.90;;;;;;5092789;28;20020;-78
2020/12/15 03:25:00;;;;;;;11.50;3.70;;;9.40;99.90;;;;;;5093618;28;20066;-79
2020/12/15 03:27:26;;;;;;;5.47;3.60;;;9.40;99.90;;;;;;5093742;28;20537;-79
2020/12/15 03:29:51;;;;;;;7.22;4.05;;;9.40;99.90;;;;;;5093904;28;20111;-80
2020/12/15 03:32:17;;;;;;;7.07;3.83;;;9.40;99.90;;;;;;5094188;28;20423;-80
2020/12/15 03:34:42;;;;;;;8.25;3.03;;;9.40;99.90;;;;;;5076340;28;20021;-79
2020/12/15 03:37:08;;;;;;;6.35;3.63;;;9.40;99.90;;;;;;5072998;28;20389;-80
2020/12/15 03:39:34;;;;;;;7.82;3.80;;;9.40;99.90;;;;;;5077972;28;20485;-81
2020/12/15 03:42:00;;;;;;;5.50;3.35;;;13.10;99.90;;;;;;5077902;28;20055;-81
2020/12/15 03:44:27;;;;;;;6.13;3.92;;;9.40;99.90;;;;;;5093469;28;20028;-82
2020/12/15 03:46:52;;;;;;;5.20;3.05;;;9.40;99.90;;;;;;5097157;28;20058;-81
2020/12/15 03:49:18;;;;;;;6.97;4.40;;;9.40;99.90;;;;;;5100137;28;20024;-82
2020/12/15 03:51:43;;;;;;;7.88;3.63;;;9.50;99.90;;;;;;5103575;28;20024;-82
2020/12/15 03:54:09;;;;;;;6.97;3.53;;;9.50;99.90;;;;;;5084180;28;20036;-80
2020/12/15 03:56:37;;;;;;;7.80;3.63;;;9.50;99.90;;;;;;5076739;28;20013;-80
2020/12/15 03:59:02;;;;;;;9.35;4.70;;;9.50;99.90;;;;;;5074608;28;20044;-80
2020/12/15 04:01:28;;;;;;;8.30;3.85;;;9.50;99.90;;;;;;5075552;28;20016;-82
2020/12/15 04:03:53;;;;;;;9.35;4.30;;;9.50;99.90;;;;;;5086316;28;20020;-81
2020/12/15 04:06:19;;;;;;;7.57;4.15;;;9.60;99.90;;;;;;5097162;28;20020;-80
2020/12/15 04:08:45;;;;;;;10.07;4.80;;;9.60;99.90;;;;;;5094837;28;20419;-78
2020/12/15 04:11:10;;;;;;;8.68;4.03;;;9.60;99.90;;;;;;5086689;28;20017;-78
2020/12/15 04:13:36;;;;;;;8.63;3.83;;;9.50;99.90;;;;;;5072262;28;20386;-77
2020/12/15 04:16:01;;;;;;;6.97;3.72;;;9.50;99.90;;;;;;5071986;28;20056;-77
2020/12/15 04:18:27;;;;;;;10.57;4.78;;;9.60;99.90;;;;;;5072066;28;20478;-77
2020/12/15 04:20:53;;;;;;;8.23;4.20;;;9.60;99.90;;;;;;5072326;28;20027;-77
2020/12/15 04:23:19;;;;;;;6.80;3.90;;;9.60;99.90;;;;;;5073691;28;20048;-76
2020/12/15 04:25:57;;;;;;;8.18;4.28;;;9.60;99.90;;;;;;5073854;28;20029;-78
2020/12/15 04:28:23;;;;;;;9.45;3.67;;;9.60;99.90;;;;;;5072067;28;20048;-78
2020/12/15 04:30:49;;;;;;;6.22;3.83;;;9.60;99.90;;;;;;5071792;28;20519;-77
2020/12/15 04:33:15;;;;;;;8.10;3.88;;;9.60;99.90;;;;;;5071992;28;20518;-77
2020/12/15 04:35:40;;;;;;;9.98;4.55;;;9.60;99.90;;;;;;5090483;28;20020;-78
2020/12/15 04:38:06;;;;;;;7.43;3.45;;;9.70;99.90;;;;;;5074254;28;20027;-79
2020/12/15 04:40:34;;;;;;;8.60;4.20;;;9.60;99.90;;;;;;5072460;28;20389;-78
2020/12/15 04:43:01;;;;;;;6.03;3.28;;;9.60;99.90;;;;;;5073164;28;20028;-79
2020/12/15 04:45:27;;;;;;;4.57;3.30;;;9.70;99.90;;;;;;5085752;28;20039;-79
2020/12/15 04:48:00;;;;;;;6.20;3.60;;;9.70;99.90;;;;;;5093345;28;20028;-79
2020/12/15 04:50:35;;;;;;;6.78;3.22;;;9.70;99.90;;;;;;5092082;28;20047;-80
2020/12/15 04:53:11;;;;;;;5.40;3.38;;;9.80;99.90;;;;;;5086088;28;20154;-78
2020/12/15 04:55:39;;;;;;;5.55;3.13;;;9.70;99.90;;;;;;5073009;28;20025;-78
2020/12/15 04:58:05;;;;;;;7.18;2.95;;;9.70;99.90;;;;;;5078673;28;20092;-80
2020/12/15 05:00:33;;;;;;;6.68;3.67;;;9.70;99.90;;;;;;5072185;28;20067;-79
2020/12/15 05:03:00;;;;;;;8.45;3.97;;;9.60;99.90;;;;;;5078096;28;20016;-78
2020/12/15 05:05:26;;;;;;;7.97;3.33;;;9.60;99.90;;;;;;5093313;28;20499;-78
2020/12/15 05:07:52;;;;;;;7.00;3.90;;;9.60;99.90;;;;;;5094240;28;20025;-78
2020/12/15 05:10:20;;;;;;;6.97;3.47;;;9.60;99.90;;;;;;5097010;28;20103;-79
2020/12/15 05:12:47;;;;;;;4.90;3.10;;;9.60;99.90;;;;;;5098987;28;20023;-80
2020/12/15 05:15:15;;;;;;;5.53;3.38;;;9.60;99.90;;;;;;5100574;28;20046;-79
2020/12/15 05:17:42;;;;;;;5.03;2.95;;;9.60;99.90;;;;;;5097565;28;20484;-79
2020/12/15 05:20:08;;;;;;;5.28;2.95;;;9.60;99.90;;;;;;5095278;28;20020;-79
2020/12/15 05:22:45;;;;;;;5.60;3.20;;;9.60;99.90;;;;;;5095220;28;20027;-78
2020/12/15 05:25:22;;;;;;;4.63;2.90;;;9.70;99.90;;;;;;5075116;28;20028;-79
2020/12/15 05:27:47;;;;;;;5.32;3.33;;;9.70;99.90;;;;;;5076390;28;20478;-78
2020/12/15 05:30:13;;;;;;;6.88;3.53;;;9.70;99.90;;;;;;5076149;28;20021;-77
2020/12/15 05:32:56;;;;;;;6.55;3.05;;;9.70;99.90;;;;;;5090986;28;20457;-78
2020/12/15 05:35:35;;;;;;;3.92;2.72;;;9.70;99.90;;;;;;5096331;28;20025;-76
2020/12/15 05:38:04;;;;;;;4.68;2.45;;;9.70;99.90;;;;;;5096337;28;20012;-78
2020/12/15 05:40:30;;;;;;;5.70;2.72;;;9.70;99.90;;;;;;5084049;28;20432;-78
2020/12/15 05:42:58;;;;;;;6.22;2.70;;;9.70;99.90;;;;;;5076226;28;20024;-76
2020/12/15 05:45:25;;;;;;;3.45;2.22;;;9.70;99.90;;;;;;5075324;28;20016;-76
2020/12/15 05:48:06;;;;;;;6.70;2.67;;;9.70;99.90;;;;;;5076689;28;20029;-77
2020/12/15 05:50:32;;;;;;;3.38;2.33;;;9.60;99.90;;;;;;5087177;28;20032;-78
2020/12/15 05:53:00;;;;;;;5.90;2.38;;;9.60;99.90;;;;;;5095024;28;20423;-78
2020/12/15 05:55:26;;;;;;;5.35;2.40;;;9.60;99.90;;;;;;5096133;28;20055;-77
2020/12/15 05:57:53;;;;;;;6.10;2.92;;;9.60;99.90;;;;;;5096064;28;20024;-77
2020/12/15 06:00:20;;;;;;;4.32;2.53;;;9.60;99.90;;;;;;5094353;28;20184;-77
2020/12/15 06:03:03;;;;;;;4.13;2.17;;;9.60;99.90;;;;;;5076815;28;20029;-77
2020/12/15 06:05:30;;;;;;;5.07;2.75;;;9.50;99.90;;;;;;5078180;28;20052;-82
2020/12/15 06:07:57;;;;;;;6.18;2.53;;;9.50;99.90;;;;;;5080445;28;20033;-81
2020/12/15 06:10:25;;;;;;;4.47;2.47;;;9.50;99.90;;;;;;5088350;28;20028;-81
2020/12/15 06:12:51;;;;;;;6.18;2.22;;;9.60;99.90;;;;;;5097115;28;20427;-79
2020/12/15 06:15:18;;;;;;;6.75;2.40;;;9.50;99.90;;;;;;5096058;28;20055;-80
2020/12/15 06:17:52;;;;;;;6.43;2.58;;;9.50;99.90;;;;;;5096275;28;20509;-81
2020/12/15 06:20:21;;;;;;;8.05;2.03;;;9.50;99.90;;;;;;5096788;28;20027;-82
2020/12/15 06:22:52;;;;;;;5.25;1.98;;;9.50;99.90;;;;;;5098629;28;20027;-82
2020/12/15 06:25:30;;;;;;;4.80;2.40;;;9.50;99.90;;;;;;5097049;28;20383;-77
2020/12/15 06:28:08;;;;;;;8.80;2.17;;;9.50;99.90;;;;;;5095576;28;20020;-77
2020/12/15 06:30:39;;;;;;;4.15;1.58;;;9.50;99.90;;;;;;5095702;28;20441;-78
2020/12/15 06:33:08;;;;;;;5.25;2.58;;;9.50;99.90;;;;;;5094295;28;20016;-74
2020/12/15 06:35:35;;;;;;;5.07;2.00;;;9.50;99.90;;;;;;5095384;28;20381;-79
2020/12/15 06:38:04;;;;;;;5.03;2.30;;;9.50;99.90;;;;;;5094777;28;20023;-78
2020/12/15 06:40:44;;;;;;;5.15;2.60;;;9.50;99.90;;;;;;5085879;28;20020;-78
2020/12/15 06:43:10;;;;;;;3.97;2.20;;;9.50;99.90;;;;;;5073730;28;20054;-78
2020/12/15 06:45:36;;;;;;;5.00;2.45;;;9.50;99.90;;;;;;5076135;28;20021;-79
2020/12/15 06:48:04;;;;;;;3.17;1.67;;;9.50;99.90;;;;;;5080630;28;20032;-80
2020/12/15 06:50:46;;;;;;;5.30;2.00;;;9.50;99.90;;;;;;5082238;28;20028;-77
2020/12/15 06:53:15;;;;;;;7.07;2.45;;;9.50;99.90;;;;;;5073463;28;20029;-78
2020/12/15 06:55:42;;;;;;;4.78;2.08;;;9.60;99.90;;;;;;5073356;28;20024;-77
2020/12/15 06:58:08;;;;;;;6.22;2.67;;;9.50;99.90;;;;;;5085414;28;20380;-77
2020/12/15 07:00:38;;;;;;;7.50;1.67;;;9.50;99.90;;;;;;5093467;28;20016;-77
2020/12/15 07:03:05;;;;;;;5.63;2.20;;;9.50;99.90;;;;;;5093330;28;20028;-77
2020/12/15 07:05:33;;;;;;;4.78;1.90;;;9.50;99.90;;;;;;5093706;28;20366;-76
2020/12/15 07:08:11;;;;;;;6.95;2.65;;;9.50;99.90;;;;;;5094921;28;20028;-76
2020/12/15 07:10:42;;;;;;;4.85;2.05;;;9.50;99.90;;;;;;5083259;28;20112;-78
2020/12/15 07:13:07;;;;;;;3.97;2.55;;;9.60;99.90;;;;;;5101509;22;20122;-79
2020/12/15 07:15:34;;;;;;;4.78;2.53;;;9.60;99.90;;;;;;5095346;28;20051;-78
2020/12/15 07:18:02;;;;;;;4.60;2.00;;;9.60;99.90;;;;;;5093540;28;20024;-77
2020/12/15 07:20:28;;;;;;;8.63;2.53;;;9.60;99.90;;;;;;5073973;28;20397;-75
2020/12/15 07:22:54;;;;;;;3.38;2.10;;;9.50;99.90;;;;;;5072972;28;20032;-77
2020/12/15 07:25:20;;;;;;;8.13;2.38;;;9.60;99.90;;;;;;5073369;28;20483;-78
2020/12/15 07:27:47;;;;;;;5.75;2.75;;;9.50;99.90;;;;;;5072642;28;20078;-77
2020/12/15 07:30:18;;;;;;;9.50;2.70;;;9.50;99.90;;;;;;5073874;28;20025;-77
2020/12/15 07:32:45;;;;;;;7.10;2.72;;;9.60;99.90;;;;;;5075317;28;20051;-77
2020/12/15 07:35:18;;;;;;;8.13;2.85;;;9.50;99.90;;;;;;5074645;28;20025;-81
2020/12/15 07:37:44;;;;;;;6.65;2.95;;;9.60;99.90;;;;;;5074637;28;20020;-79
2020/12/15 07:40:15;;;;;;;9.95;1.95;;;9.50;99.90;;;;;;5074704;28;20041;-78
2020/12/15 07:42:40;;;;;;;7.00;2.60;;;9.50;99.90;;;;;;5072733;28;20031;-77
2020/12/15 07:45:09;;;;;;;4.30;1.88;;;9.50;99.90;;;;;;5074411;28;20058;-78
2020/12/15 07:47:42;;;;;;;7.40;1.95;;;9.50;99.90;;;;;;5074214;28;20024;-78
2020/12/15 07:50:09;;;;;;;6.32;2.70;;;9.50;99.90;;;;;;5074157;28;20028;-76
2020/12/15 07:52:37;;;;;;;9.50;2.90;;;9.50;99.90;;;;;;5075107;28;20021;-78
2020/12/15 07:55:12;;;;;;;4.30;2.58;;;9.50;99.90;;;;;;5074548;28;20031;-78
2020/12/15 07:57:40;;;;;;;34.38;2.55;;;9.70;99.90;;;;;;5072238;28;20016;-79
2020/12/15 08:00:07;;;;;;;5.43;1.88;;;9.50;99.90;;;;;;5074027;28;20036;-78
2020/12/15 08:02:33;;;;;;;4.63;2.53;;;9.50;99.90;;;;;;5074632;28;20024;-78
2020/12/15 08:05:10;;;;;;;7.50;2.55;;;9.50;99.90;;;;;;5073898;28;20036;-77
2020/12/15 08:07:44;;;;;;;6.82;2.70;;;9.60;99.90;;;;;;5072629;28;20043;-76
2020/12/15 08:10:10;;;;;;;5.20;2.78;;;9.60;99.90;;;;;;5071010;28;20435;-75
2020/12/15 08:12:37;;;;;;;3.95;2.55;;;9.60;99.90;;;;;;5072594;28;20089;-75
2020/12/15 08:15:03;;;;;;;6.38;2.97;;;9.70;99.90;;;;;;5071836;28;20021;-76
2020/12/15 08:17:32;;;;;;;5.43;2.95;;;9.70;99.90;;;;;;5073699;28;20029;-76
2020/12/15 08:20:03;;;;;;;8.35;3.25;;;9.70;99.90;;;;;;5073451;28;20419;-75
2020/12/15 08:22:29;;;;;;;5.88;3.03;;;9.60;99.90;;;;;;5073506;28;20100;-75
2020/12/15 08:24:56;;;;;;;6.28;2.78;;;9.60;99.90;;;;;;5072968;28;20035;-76
2020/12/15 08:27:26;;;;;;;8.25;3.25;;;9.60;99.90;;;;;;5073145;28;20048;-76
2020/12/15 08:30:11;;;;;;;5.10;3.00;;;9.60;99.90;;;;;;5072940;28;20024;-76
2020/12/15 08:32:38;;;;;;;7.25;2.88;;;9.60;99.90;;;;;;5072996;28;20024;-76
2020/12/15 08:35:04;;;;;;;5.75;2.95;;;9.60;99.90;;;;;;5073589;28;20025;-75
2020/12/15 08:37:32;;;;;;;6.53;3.55;;;9.60;99.90;;;;;;5073006;28;20017;-76
2020/12/15 08:39:58;;;;;;;6.57;2.85;;;9.70;99.90;;;;;;5072854;28;20029;-76
2020/12/15 08:42:24;;;;;;;8.00;3.70;;;9.60;99.90;;;;;;5074224;28;20028;-75
2020/12/15 08:44:50;;;;;;;6.10;2.72;;;9.60;99.90;;;;;;5077202;28;20089;-76
2020/12/15 08:47:19;;;;;;;5.72;3.15;;;9.70;99.90;;;;;;5076992;28;20079;-74
2020/12/15 08:49:45;;;;;;;10.25;2.90;;;9.60;99.90;;;;;;5075472;28;20016;-74
2020/12/15 08:52:20;;;;;;;7.00;3.10;;;9.60;99.90;;;;;;5076813;28;20031;-74
2020/12/15 08:54:45;;;;;;;8.15;3.03;;;9.60;99.90;;;;;;5077080;28;20381;-74
2020/12/15 08:57:15;;;;;;;5.57;2.80;;;9.60;99.90;;;;;;5077025;28;20012;-74
2020/12/15 08:59:41;;;;;;;8.35;3.45;;;9.60;99.90;;;;;;5076596;28;20426;-75
2020/12/15 09:02:11;;;;;;;8.25;3.10;;;9.60;99.90;;;;;;5075366;28;20489;-74
2020/12/15 09:04:37;;;;;;;7.22;3.90;;;9.60;99.90;;;;;;5075361;28;20137;-75
2020/12/15 09:07:19;;;;;;;7.15;3.55;;;9.70;99.90;;;;;;5076682;28;20024;-76
2020/12/15 09:09:45;;;;;;;6.30;2.97;;;9.70;99.90;;;;;;5075190;28;20032;-76
2020/12/15 09:12:11;;;;;;;8.70;3.38;;;9.70;99.90;;;;;;5076364;28;20028;-75
2020/12/15 09:14:38;;;;;;;8.45;3.30;;;9.70;99.90;;;;;;5076462;28;20085;-75
2020/12/15 09:17:03;;;;;;;8.02;3.35;;;9.80;99.90;;;;;;5076679;28;20486;-75
2020/12/15 09:19:29;;;;;;;8.95;4.15;;;9.80;99.90;;;;;;5076334;28;20024;-75
2020/12/15 09:21:59;;;;;;;6.85;3.47;;;9.80;99.90;;;;;;5076514;28;20032;-75
2020/12/15 09:24:26;;;;;;;11.25;3.55;;;9.80;99.90;;;;;;5075012;28;20074;-75
2020/12/15 09:26:52;;;;;;;7.05;3.35;;;9.80;99.90;;;;;;5075231;28;20473;-76
2020/12/15 09:29:18;;;;;;;9.27;3.97;;;9.80;99.90;;;;;;5074672;28;20098;-75
2020/12/15 09:31:59;;;;;;;8.38;3.85;;;9.80;99.90;;;;;;5076307;28;20092;-75
2020/12/15 09:34:24;;;;;;;6.72;3.25;;;9.90;99.90;;;;;;5075954;28;20024;-75
2020/12/15 09:36:57;;;;;;;7.50;3.55;;;9.90;99.90;;;;;;5076000;28;20036;-75
2020/12/15 09:39:27;;;;;;;6.80;3.42;;;10.00;99.90;;;;;;5075816;28;20020;-76
2020/12/15 09:41:56;;;;;;;7.55;3.58;;;10.10;99.90;;;;;;5074564;28;20038;-76
2020/12/15 09:44:22;;;;;;;11.38;3.90;;;10.10;99.90;;;;;;5074594;28;20013;-76
2020/12/15 09:46:48;;;;;;;7.85;4.32;;;10.10;99.90;;;;;;5074591;28;20039;-77
2020/12/15 09:49:13;;;;;;;7.70;3.85;;;10.10;99.90;;;;;;5075847;28;20050;-76
2020/12/15 09:51:41;;;;;;;14.38;4.72;;;10.20;99.90;;;;;;5075662;28;20091;-76
2020/12/15 09:54:06;;;;;;;7.28;3.65;;;10.20;99.90;;;;;;5074204;28;20116;-76
2020/12/15 09:56:32;;;;;;;9.98;3.80;;;10.20;99.90;;;;;;5075677;28;20453;-76
2020/12/15 09:58:58;;;;;;;9.00;4.13;;;10.30;99.90;;;;;;5074319;28;20378;-76
2020/12/15 10:01:24;;;;;;;11.98;4.60;;;10.30;99.90;;;;;;5075556;28;20146;-76
2020/12/15 10:03:50;;;;;;;10.70;4.05;;;10.30;99.90;;;;;;5073988;28;20024;-76
2020/12/15 10:06:16;;;;;;;8.65;5.07;;;10.30;99.90;;;;;;5075356;28;20029;-76
2020/12/15 10:08:42;;;;;;;7.40;4.15;;;10.40;99.90;;;;;;5075236;28;20027;-76
2020/12/15 10:11:07;;;;;;;9.38;4.20;;;10.40;99.90;;;;;;5075267;28;20028;-76
2020/12/15 10:13:33;;;;;;;11.50;5.30;;;10.30;99.90;;;;;;5075112;28;20032;-76
2020/12/15 10:15:58;;;;;;;6.70;3.88;;;10.30;99.90;;;;;;5074903;28;20028;-77
2020/12/15 10:18:24;;;;;;;11.65;4.63;;;10.30;99.90;;;;;;5076462;28;20019;-78
2020/12/15 10:20:49;;;;;;;11.95;5.00;;;10.30;99.90;;;;;;5075168;28;20024;-78
2020/12/15 10:23:15;;;;;;;15.15;5.53;;;10.30;99.90;;;;;;5074382;28;20103;-80
2020/12/15 10:25:41;;;;;;;9.85;5.07;;;10.20;99.90;;;;;;5077759;28;20029;-77
2020/12/15 10:28:09;;;;;;;9.13;4.63;;;10.20;99.90;;;;;;5075789;28;20393;-78
2020/12/15 10:30:35;;;;;;;11.35;5.40;;;10.20;99.90;;;;;;5075856;28;20044;-78
2020/12/15 10:33:01;;;;;;;10.13;5.00;;;10.30;99.90;;;;;;5075192;28;20048;-78
2020/12/15 10:35:26;;;;;;;8.32;3.95;;;10.30;99.90;;;;;;5077068;28;20017;-78
2020/12/15 10:37:52;;;;;;;13.50;4.93;;;10.60;99.90;;;;;;5074026;28;20078;-78
2020/12/15 10:40:20;;;;;;;8.45;4.38;;;10.30;99.90;;;;;;5074283;28;20077;-78
2020/12/15 10:42:46;;;;;;;12.80;5.57;;;10.40;99.90;;;;;;5073657;28;20073;-78
2020/12/15 10:45:12;;;;;;;11.80;4.80;;;10.40;99.90;;;;;;5075110;28;20029;-78
2020/12/15 10:47:38;;;;;;;12.13;4.95;;;10.40;99.90;;;;;;5073502;28;20481;-78
2020/12/15 10:50:04;;;;;;;13.05;5.38;;;10.40;99.90;;;;;;5073213;28;20020;-78
2020/12/15 10:52:29;;;;;;;11.40;5.38;;;10.40;99.90;;;;;;5075417;28;20025;-77
2020/12/15 10:54:55;;;;;;;8.57;5.05;;;10.40;99.90;;;;;;5075225;28;20527;-78
2020/12/15 10:57:23;;;;;;;8.63;4.88;;;10.40;99.90;;;;;;5075605;28;20027;-78
2020/12/15 10:59:49;;;;;;;8.82;5.05;;;10.40;99.90;;;;;;5075425;28;20028;-78
2020/12/15 11:02:16;;;;;;;10.98;5.60;;;10.40;99.90;;;;;;5074519;28;20504;-78
2020/12/15 11:04:41;;;;;;;14.68;5.68;;;10.30;99.90;;;;;;5075043;28;20016;-78
2020/12/15 11:07:07;;;;;;;8.48;5.25;;;10.30;99.90;;;;;;5074087;28;20478;-78
2020/12/15 11:09:32;;;;;;;10.85;5.63;;;10.30;99.90;;;;;;5074364;28;20012;-78
2020/12/15 11:11:58;;;;;;;10.68;6.35;;;10.40;99.90;;;;;;5073260;28;20389;-76
2020/12/15 11:14:24;;;;;;;13.98;5.88;;;10.50;99.90;;;;;;5071016;28;20111;-75
2020/12/15 11:16:49;;;;;;;11.20;6.60;;;10.50;99.90;;;;;;5054254;28;20071;-76
2020/12/15 11:19:15;;;;;;;14.38;5.30;;;10.50;99.90;;;;;;5065633;28;20032;-78
2020/12/15 11:21:40;;;;;;;13.82;4.95;;;10.40;99.90;;;;;;5074640;28;20024;-79
2020/12/15 11:24:06;;;;;;;13.57;4.95;;;10.50;99.90;;;;;;5073439;28;20077;-78
2020/12/15 11:26:31;;;;;;;12.20;6.25;;;10.50;99.90;;;;;;5074925;28;20471;-78
2020/12/15 11:28:57;;;;;;;10.55;6.13;;;10.50;99.90;;;;;;5074599;28;20091;-78
2020/12/15 11:31:22;;;;;;;10.85;5.93;;;10.50;99.90;;;;;;5074637;28;20052;-78
2020/12/15 11:33:48;;;;;;;12.38;5.32;;;10.60;99.90;;;;;;5074360;28;20021;-78
2020/12/15 11:36:15;;;;;;;12.38;5.97;;;10.60;99.90;;;;;;5074622;28;20013;-78
2020/12/15 11:38:43;;;;;;;12.25;5.93;;;10.60;99.90;;;;;;5074573;28;20029;-78
2020/12/15 11:41:10;;;;;;;14.45;6.43;;;10.60;99.90;;;;;;5072625;28;20027;-78
2020/12/15 11:43:35;;;;;;;12.93;6.55;;;10.60;99.90;;;;;;5073627;28;20029;-76
2020/12/15 11:46:01;;;;;;;9.25;5.90;;;10.60;99.90;;;;;;5073609;28;20028;-77
2020/12/15 11:48:26;;;;;;;16.67;7.00;;;10.70;99.90;;;;;;5072235;28;20500;-76
2020/12/15 11:50:52;;;;;;;13.93;6.53;;;10.60;99.90;;;;;;5073633;28;20039;-76
2020/12/15 11:53:17;;;;;;;13.38;7.43;;;10.60;99.90;;;;;;5072357;28;20027;-76
2020/12/15 11:55:43;;;;;;;13.30;6.57;;;10.60;99.90;;;;;;5073673;28;20023;-76
2020/12/15 11:58:08;;;;;;;10.55;5.57;;;10.60;99.90;;;;;;5073324;28;20028;-76
2020/12/15 12:00:34;;;;;;;11.48;5.85;;;10.60;99.90;;;;;;5073663;28;20040;-76
2020/12/15 12:02:59;;;;;;;11.57;5.80;;;10.60;99.90;;;;;;5073441;28;20181;-76
2020/12/15 12:05:25;;;;;;;11.45;5.80;;;10.60;99.90;;;;;;5073424;28;20029;-76
2020/12/15 12:07:50;;;;;;;13.77;7.05;;;10.60;99.90;;;;;;5073315;28;20028;-76
2020/12/15 12:10:16;;;;;;;12.13;5.78;;;10.60;99.90;;;;;;5073399;28;20025;-76
2020/12/15 12:12:42;;;;;;;12.20;5.35;;;10.60;99.90;;;;;;5073654;28;20408;-76
2020/12/15 12:15:08;;;;;;;13.23;5.90;;;10.60;99.90;;;;;;5072674;28;20086;-77
2020/12/15 12:17:36;;;;;;;12.23;6.38;;;10.50;99.90;;;;;;5071277;28;20056;-76
2020/12/15 12:20:03;;;;;;;13.90;6.65;;;10.50;99.90;;;;;;5072031;28;20081;-76
2020/12/15 12:22:29;;;;;;;12.35;6.53;;;10.50;99.90;;;;;;5073138;28;20028;-77
2020/12/15 12:24:55;;;;;;;12.52;6.68;;;10.50;99.90;;;;;;5073534;28;20404;-76
2020/12/15 12:27:21;;;;;;;16.02;7.15;;;10.50;99.90;;;;;;5071750;28;20086;-77
2020/12/15 12:29:46;;;;;;;13.02;6.05;;;10.50;99.90;;;;;;5072844;28;20054;-77
2020/12/15 12:32:12;;;;;;;22.55;6.63;;;10.50;99.90;;;;;;5073562;28;20027;-77
2020/12/15 12:34:37;;;;;;;12.75;6.65;;;10.60;99.90;;;;;;5071694;28;20031;-77
2020/12/15 12:37:10;;;;;;;12.32;7.05;;;10.60;99.90;;;;;;5073179;28;20079;-77
2020/12/15 12:39:37;;;;;;;16.05;7.53;;;10.60;99.90;;;;;;5073109;28;20413;-77
2020/12/15 12:42:03;;;;;;;14.73;7.32;;;10.60;99.90;;;;;;5073386;28;20519;-76
2020/12/15 12:44:29;;;;;;;12.32;7.22;;;10.60;99.90;;;;;;5072966;28;20112;-77
2020/12/15 12:46:54;;;;;;;17.98;7.70;;;10.60;99.90;;;;;;5071639;28;20440;-77
2020/12/15 12:49:20;;;;;;;16.05;7.55;;;10.50;99.90;;;;;;5071278;28;20112;-77
2020/12/15 12:51:46;;;;;;;15.65;6.70;;;10.50;99.90;;;;;;5072987;28;20021;-76